createdAt,value
2018-06-27T00:01:05.254Z,14.00
2018-06-27T00:03:33.483Z,14.00
2018-06-27T00:06:01.758Z,14.00
2018-06-27T00:08:30.021Z,14.00
2018-06-27T00:10:58.244Z,14.00
2018-06-27T00:13:26.492Z,14.00
2018-06-27T00:15:54.778Z,14.00
2018-06-27T00:18:22.998Z,14.10
2018-06-27T00:20:51.251Z,14.00
2018-06-27T00:23:19.564Z,14.00
2018-06-27T00:25:47.786Z,14.00
2018-06-27T00:28:16.183Z,13.90
2018-06-27T00:30:44.404Z,13.90
2018-06-27T00:33:12.632Z,13.90
2018-06-27T00:35:40.867Z,13.90
2018-06-27T00:38:12.860Z,13.90
2018-06-27T00:40:41.206Z,13.90
2018-06-27T00:43:09.496Z,13.90
2018-06-27T00:45:37.741Z,13.90
2018-06-27T00:48:06.281Z,13.90
2018-06-27T00:50:34.548Z,13.80
2018-06-27T00:53:02.812Z,13.90
2018-06-27T00:55:31.226Z,13.80
2018-06-27T00:57:59.575Z,13.70
2018-06-27T01:00:27.881Z,13.70
2018-06-27T01:02:56.142Z,13.70
2018-06-27T01:05:24.373Z,13.70
2018-06-27T01:07:52.611Z,13.70
2018-06-27T01:10:20.843Z,13.60
2018-06-27T01:12:49.130Z,13.50
2018-06-27T01:15:17.349Z,13.50
2018-06-27T01:17:52.132Z,13.60
2018-06-27T01:20:20.431Z,13.60
2018-06-27T01:22:48.729Z,13.50
2018-06-27T01:25:16.952Z,13.50
2018-06-27T01:27:45.402Z,13.40
2018-06-27T01:30:13.640Z,13.40
2018-06-27T01:32:41.928Z,13.40
2018-06-27T01:35:10.205Z,13.30
2018-06-27T01:37:38.691Z,13.30
2018-06-27T01:40:06.926Z,13.20
2018-06-27T01:42:35.193Z,13.20
2018-06-27T01:45:03.473Z,13.20
2018-06-27T01:49:59.723Z,13.20
2018-06-27T01:52:28.316Z,13.30
2018-06-27T01:54:56.542Z,13.30
2018-06-27T01:57:24.784Z,13.40
2018-06-27T01:59:53.020Z,13.40
2018-06-27T02:02:21.276Z,13.30
2018-06-27T02:04:49.517Z,13.30
2018-06-27T02:07:17.780Z,13.40
2018-06-27T02:09:46.024Z,13.30
2018-06-27T02:14:42.266Z,13.20
2018-06-27T02:17:10.503Z,13.10
2018-06-27T02:19:38.757Z,13.10
2018-06-27T02:22:07.243Z,13.00
2018-06-27T02:24:35.513Z,13.00
2018-06-27T02:27:03.770Z,13.00
2018-06-27T02:29:32.007Z,12.90
2018-06-27T02:32:00.350Z,12.90
2018-06-27T02:34:28.583Z,12.90
2018-06-27T02:36:56.804Z,12.90
2018-06-27T02:39:25.043Z,12.90
2018-06-27T02:41:53.288Z,13.00
2018-06-27T02:44:21.540Z,12.90
2018-06-27T02:46:50.101Z,12.90
2018-06-27T02:49:18.380Z,12.90
2018-06-27T02:51:46.629Z,12.90
2018-06-27T02:54:14.874Z,13.00
2018-06-27T02:56:43.122Z,13.00
2018-06-27T02:59:11.387Z,12.90
2018-06-27T03:01:39.616Z,12.90
2018-06-27T03:04:07.850Z,12.90
2018-06-27T03:09:06.091Z,13.00
2018-06-27T03:11:34.358Z,13.00
2018-06-27T03:14:02.616Z,13.10
2018-06-27T03:16:30.872Z,13.10
2018-06-27T03:18:59.128Z,13.10
2018-06-27T03:21:27.380Z,13.10
2018-06-27T03:23:55.603Z,13.10
2018-06-27T03:26:23.857Z,13.00
2018-06-27T03:31:20.091Z,13.00
2018-06-27T03:33:48.400Z,13.00
2018-06-27T03:36:16.584Z,12.90
2018-06-27T03:38:44.833Z,13.00
2018-06-27T03:43:41.094Z,13.10
2018-06-27T03:46:09.324Z,13.10
2018-06-27T03:48:37.572Z,13.10
2018-06-27T03:51:05.912Z,13.20
2018-06-27T03:53:42.662Z,13.20
2018-06-27T03:56:11.893Z,13.30
2018-06-27T03:58:40.115Z,13.40
2018-06-27T04:01:10.092Z,13.40
2018-06-27T04:03:39.387Z,13.40
2018-06-27T04:06:08.258Z,13.50
2018-06-27T04:08:36.459Z,13.50
2018-06-27T04:11:04.728Z,13.50
2018-06-27T04:13:33.019Z,13.60
2018-06-27T04:16:01.480Z,13.60
2018-06-27T04:18:29.762Z,13.60
2018-06-27T04:20:58.203Z,13.70
2018-06-27T04:23:26.479Z,13.80
2018-06-27T04:25:54.702Z,13.80
2018-06-27T04:28:22.939Z,13.90
2018-06-27T04:30:51.194Z,14.00
2018-06-27T04:35:47.678Z,14.20
2018-06-27T04:38:16.217Z,14.30
2018-06-27T04:40:44.428Z,14.60
2018-06-27T04:43:12.728Z,15.00
2018-06-27T04:45:40.973Z,15.20
2018-06-27T04:48:09.399Z,15.30
2018-06-27T04:50:37.666Z,15.40
2018-06-27T04:53:05.920Z,15.50
2018-06-27T04:55:34.264Z,15.60
2018-06-27T04:58:03.958Z,15.80
2018-06-27T05:00:32.177Z,16.00
2018-06-27T05:03:00.469Z,16.00
2018-06-27T05:05:28.693Z,15.90
2018-06-27T05:07:56.944Z,15.90
2018-06-27T05:10:25.304Z,15.80
2018-06-27T05:12:53.581Z,15.70
2018-06-27T05:15:21.833Z,15.60
2018-06-27T05:17:50.108Z,15.60
2018-06-27T05:20:18.433Z,15.60
2018-06-27T05:25:14.684Z,15.70
2018-06-27T05:27:42.998Z,15.80
2018-06-27T05:30:11.156Z,15.80
2018-06-27T05:32:39.389Z,15.90
2018-06-27T05:35:07.694Z,15.90
2018-06-27T05:37:35.939Z,16.00
2018-06-27T05:40:04.434Z,16.00
2018-06-27T05:42:32.692Z,16.10
2018-06-27T05:45:00.915Z,16.20
2018-06-27T05:47:29.176Z,16.20
2018-06-27T05:49:57.469Z,16.50
2018-06-27T05:52:25.708Z,16.60
2018-06-27T05:54:59.324Z,16.70
2018-06-27T05:57:27.546Z,16.80
2018-06-27T05:59:55.830Z,16.90
2018-06-27T06:02:24.059Z,16.90
2018-06-27T06:04:52.333Z,16.90
2018-06-27T06:07:20.548Z,16.90
2018-06-27T06:09:48.806Z,17.10
2018-06-27T06:12:17.029Z,17.20
2018-06-27T06:14:45.266Z,17.20
2018-06-27T06:17:13.495Z,17.30
2018-06-27T06:19:41.766Z,17.40
2018-06-27T06:22:10.049Z,17.50
2018-06-27T06:24:40.640Z,17.60
2018-06-27T06:27:09.200Z,17.60
2018-06-27T06:29:37.562Z,17.60
2018-06-27T06:32:07.333Z,17.70
2018-06-27T06:34:35.551Z,17.80
2018-06-27T06:37:03.829Z,17.90
2018-06-27T06:39:32.089Z,17.90
2018-06-27T06:42:00.301Z,18.00
2018-06-27T06:44:28.556Z,18.10
2018-06-27T06:46:56.836Z,18.20
2018-06-27T06:49:25.077Z,18.40
2018-06-27T06:51:53.648Z,18.50
2018-06-27T06:54:22.667Z,18.60
2018-06-27T06:56:50.918Z,18.80
2018-06-27T06:59:19.516Z,19.30
2018-06-27T07:01:50.241Z,19.60
2018-06-27T07:04:20.435Z,20.30
2018-06-27T07:06:56.609Z,20.90
2018-06-27T07:09:32.264Z,20.80
2018-06-27T07:12:04.622Z,20.90
2018-06-27T07:14:32.981Z,20.80
2018-06-27T07:17:01.205Z,20.90
2018-06-27T07:19:29.441Z,21.10
2018-06-27T07:24:25.737Z,21.80
2018-06-27T07:26:53.986Z,22.40
2018-06-27T07:29:22.228Z,22.90
2018-06-27T07:31:50.635Z,23.20
2018-06-27T07:34:18.867Z,23.40
2018-06-27T07:36:47.241Z,25.00
2018-06-27T07:39:15.445Z,28.30
2018-06-27T07:41:43.698Z,31.60
2018-06-27T07:44:12.045Z,32.90
2018-06-27T07:46:40.307Z,32.40
2018-06-27T07:49:08.600Z,31.50
2018-06-27T07:51:36.845Z,31.60
2018-06-27T07:54:05.081Z,30.30
2018-06-27T07:56:33.367Z,28.80
2018-06-27T07:59:01.597Z,28.50
2018-06-27T08:01:29.855Z,26.90
2018-06-27T08:03:58.153Z,25.40
2018-06-27T08:06:30.646Z,25.30
2018-06-27T08:08:58.982Z,27.80
2018-06-27T08:11:27.251Z,29.90
2018-06-27T08:13:55.526Z,32.20
2018-06-27T08:16:23.759Z,34.30
2018-06-27T08:18:51.979Z,34.30
2018-06-27T08:21:20.220Z,33.40
2018-06-27T08:23:48.472Z,32.70
2018-06-27T08:28:44.780Z,29.30
2018-06-27T08:31:13.142Z,27.90
2018-06-27T08:33:41.380Z,27.40
2018-06-27T08:36:09.627Z,27.10
2018-06-27T08:38:37.901Z,26.60
2018-06-27T08:41:06.549Z,28.00
2018-06-27T08:43:34.842Z,28.50
2018-06-27T08:46:04.013Z,30.30
2018-06-27T08:48:32.261Z,30.60
2018-06-27T08:51:00.545Z,29.80
2018-06-27T08:53:28.795Z,30.60
2018-06-27T08:55:57.067Z,30.00
2018-06-27T09:00:53.304Z,28.20
2018-06-27T09:03:21.820Z,27.80
2018-06-27T09:05:50.080Z,30.20
2018-06-27T09:08:18.350Z,32.20
2018-06-27T09:13:14.683Z,32.30
2018-06-27T09:15:43.045Z,30.60
2018-06-27T09:18:11.298Z,32.10
2018-06-27T09:20:39.521Z,31.70
2018-06-27T09:23:07.742Z,30.20
2018-06-27T09:25:35.967Z,31.30
2018-06-27T09:28:04.405Z,33.70
2018-06-27T09:30:32.619Z,35.50
2018-06-27T09:33:00.839Z,35.60
2018-06-27T09:35:29.058Z,33.90
2018-06-27T09:37:57.403Z,33.60
2018-06-27T09:40:25.640Z,34.40
2018-06-27T09:42:53.855Z,35.30
2018-06-27T09:45:22.663Z,35.80
2018-06-27T09:47:50.931Z,34.40
2018-06-27T09:50:19.490Z,32.00
2018-06-27T09:52:47.849Z,31.60
2018-06-27T09:57:44.065Z,34.50
2018-06-27T10:00:17.616Z,34.60
2018-06-27T10:02:45.836Z,34.10
2018-06-27T10:05:14.084Z,34.70
2018-06-27T10:07:42.390Z,34.60
2018-06-27T10:10:10.629Z,34.60
2018-06-27T10:12:38.877Z,34.80
2018-06-27T10:15:07.122Z,34.80
2018-06-27T10:17:35.363Z,34.70
2018-06-27T10:22:31.706Z,35.00
2018-06-27T10:24:59.948Z,34.70
2018-06-27T10:27:28.184Z,33.30
2018-06-27T10:29:56.461Z,31.80
2018-06-27T10:32:24.809Z,30.40
2018-06-27T10:34:53.064Z,29.50
2018-06-27T10:37:21.316Z,29.10
2018-06-27T10:39:49.539Z,28.90
2018-06-27T10:44:45.832Z,28.70
2018-06-27T10:47:14.075Z,28.10
2018-06-27T10:49:42.320Z,27.60
2018-06-27T10:52:10.597Z,27.30
2018-06-27T10:54:44.178Z,27.50
2018-06-27T10:57:12.475Z,27.20
2018-06-27T11:02:08.742Z,26.20
2018-06-27T11:04:37.012Z,25.90
2018-06-27T11:09:33.279Z,27.10
2018-06-27T11:12:01.514Z,27.20
2018-06-27T11:16:57.933Z,27.00
2018-06-27T11:19:26.250Z,26.80
2018-06-27T11:21:54.536Z,26.70
2018-06-27T11:24:22.813Z,26.70
2018-06-27T11:26:51.100Z,26.60
2018-06-27T11:29:19.374Z,26.50
2018-06-27T11:31:47.607Z,26.40
2018-06-27T11:36:43.931Z,27.10
2018-06-27T11:39:13.532Z,27.10
2018-06-27T11:41:42.693Z,27.40
2018-06-27T11:44:11.053Z,27.60
2018-06-27T11:46:39.351Z,27.70
2018-06-27T11:49:07.741Z,27.60
2018-06-27T11:51:36.013Z,27.50
2018-06-27T11:54:04.278Z,27.20
2018-06-27T11:56:33.483Z,27.20
2018-06-27T11:59:02.304Z,27.20
2018-06-27T12:01:30.742Z,27.30
2018-06-27T12:03:59.353Z,27.60
2018-06-27T12:06:27.837Z,27.80
2018-06-27T12:08:56.148Z,28.30
2018-06-27T12:11:24.563Z,28.60
2018-06-27T12:13:52.779Z,28.50
2018-06-27T12:16:21.359Z,28.00
2018-06-27T12:18:49.568Z,27.40
2018-06-27T12:21:17.879Z,27.00
2018-06-27T12:23:46.154Z,26.80
2018-06-27T12:26:14.418Z,26.60
2018-06-27T12:28:42.674Z,26.50
2018-06-27T12:31:10.915Z,27.00
2018-06-27T12:33:39.134Z,27.50
2018-06-27T12:36:07.469Z,27.90
2018-06-27T12:38:37.797Z,27.90
2018-06-27T12:41:06.015Z,27.80
2018-06-27T12:43:34.275Z,27.70
2018-06-27T12:46:02.492Z,27.80
2018-06-27T12:48:30.813Z,27.90
2018-06-27T12:50:59.145Z,27.50
2018-06-27T12:53:27.524Z,27.10
2018-06-27T12:55:55.748Z,27.10
2018-06-27T12:58:24.368Z,27.10
2018-06-27T13:00:52.611Z,27.20
2018-06-27T13:03:20.942Z,27.30
2018-06-27T13:08:17.302Z,28.10
2018-06-27T13:10:45.516Z,28.40
2018-06-27T13:13:13.780Z,28.10
2018-06-27T13:15:42.027Z,27.70
2018-06-27T13:18:10.315Z,27.30
2018-06-27T13:23:06.584Z,27.10
2018-06-27T13:25:34.836Z,27.20
2018-06-27T13:28:03.096Z,27.20
2018-06-27T13:30:31.312Z,26.90
2018-06-27T13:32:59.548Z,26.90
2018-06-27T13:35:27.789Z,27.10
2018-06-27T13:37:56.008Z,27.50
2018-06-27T13:40:24.239Z,27.80
2018-06-27T13:42:52.488Z,28.20
2018-06-27T13:45:20.755Z,28.20
2018-06-27T13:47:49.000Z,27.90
2018-06-27T13:52:45.363Z,27.70
2018-06-27T13:55:13.587Z,27.70
2018-06-27T13:57:41.818Z,27.60
2018-06-27T14:00:10.107Z,27.60
2018-06-27T14:02:38.332Z,27.80
2018-06-27T14:07:34.713Z,27.90
2018-06-27T14:10:03.025Z,27.80
2018-06-27T14:12:31.279Z,27.70
2018-06-27T14:14:59.507Z,27.60
2018-06-27T14:17:27.775Z,27.40
2018-06-27T14:19:56.030Z,27.00
2018-06-27T14:22:24.484Z,26.70
2018-06-27T14:24:52.729Z,26.30
2018-06-27T14:27:21.012Z,26.20
2018-06-27T14:29:49.257Z,26.30
2018-06-27T14:34:45.568Z,27.10
2018-06-27T14:37:13.803Z,27.30
2018-06-27T14:39:42.079Z,27.40
2018-06-27T14:42:10.344Z,27.50
2018-06-27T14:44:38.639Z,27.60
2018-06-27T14:47:06.881Z,27.60
2018-06-27T14:49:35.142Z,27.50
2018-06-27T14:52:03.445Z,27.10
2018-06-27T14:54:32.717Z,26.70
2018-06-27T14:57:00.997Z,26.20
2018-06-27T14:59:29.278Z,25.80
2018-06-27T15:01:57.624Z,25.40
2018-06-27T15:04:25.887Z,25.10
2018-06-27T15:06:54.140Z,24.90
2018-06-27T15:09:22.440Z,24.80
2018-06-27T15:11:50.696Z,24.90
2018-06-27T15:14:22.612Z,25.00
2018-06-27T15:16:50.846Z,25.10
2018-06-27T15:19:19.325Z,25.30
2018-06-27T15:21:47.625Z,25.40
2018-06-27T15:24:16.112Z,25.40
2018-06-27T15:26:44.399Z,25.30
2018-06-27T15:31:40.624Z,25.10
2018-06-27T15:34:09.020Z,25.10
2018-06-27T15:36:37.291Z,25.10
2018-06-27T15:41:34.605Z,24.80
2018-06-27T15:44:02.824Z,24.80
2018-06-27T15:46:31.091Z,24.80
2018-06-27T15:48:59.411Z,24.90
2018-06-27T15:51:27.680Z,25.10
2018-06-27T15:53:55.923Z,25.20
2018-06-27T15:56:24.231Z,25.30
2018-06-27T15:58:52.484Z,25.50
2018-06-27T16:01:20.793Z,25.50
2018-06-27T16:03:49.060Z,25.50
2018-06-27T16:06:17.343Z,25.50
2018-06-27T16:08:45.744Z,25.50
2018-06-27T16:11:14.629Z,25.50
2018-06-27T16:13:42.796Z,25.50
2018-06-27T16:16:11.033Z,25.50
2018-06-27T16:18:39.264Z,25.50
2018-06-27T16:21:07.524Z,25.60
2018-06-27T16:23:35.776Z,25.70
2018-06-27T16:26:04.167Z,25.80
2018-06-27T16:31:00.521Z,26.00
2018-06-27T16:33:28.764Z,25.90
2018-06-27T16:35:57.045Z,25.90
2018-06-27T16:38:25.916Z,25.80
2018-06-27T16:40:54.222Z,25.90
2018-06-27T16:43:22.511Z,26.00
2018-06-27T16:45:50.736Z,26.00
2018-06-27T16:48:19.011Z,26.20
2018-06-27T16:53:15.276Z,26.30
2018-06-27T16:55:43.491Z,26.30
2018-06-27T16:58:11.774Z,26.20
2018-06-27T17:00:39.981Z,26.20
2018-06-27T17:03:08.288Z,26.10
2018-06-27T17:05:36.500Z,26.00
2018-06-27T17:08:04.823Z,25.70
2018-06-27T17:10:33.050Z,25.50
2018-06-27T17:13:01.447Z,25.30
2018-06-27T17:15:29.675Z,25.00
2018-06-27T17:17:57.982Z,24.70
2018-06-27T17:20:26.257Z,24.40
2018-06-27T17:22:54.492Z,24.10
2018-06-27T17:25:22.739Z,24.00
2018-06-27T17:27:51.021Z,23.80
2018-06-27T17:30:20.270Z,23.50
2018-06-27T17:32:48.860Z,23.40
2018-06-27T17:35:17.103Z,23.20
2018-06-27T17:37:45.887Z,23.20
2018-06-27T17:40:14.226Z,23.10
2018-06-27T17:42:42.767Z,23.10
2018-06-27T17:45:11.054Z,23.10
2018-06-27T17:50:07.804Z,23.00
2018-06-27T17:52:36.150Z,22.90
2018-06-27T17:55:04.658Z,22.90
2018-06-27T17:57:32.985Z,22.90
2018-06-27T18:00:01.472Z,22.90
2018-06-27T18:02:29.873Z,22.70
2018-06-27T18:04:58.201Z,22.70
2018-06-27T18:07:26.630Z,22.50
2018-06-27T18:09:55.320Z,22.40
2018-06-27T18:12:23.833Z,22.40
2018-06-27T18:14:52.177Z,22.30
2018-06-27T18:17:20.448Z,22.20
2018-06-27T18:19:49.073Z,22.10
2018-06-27T18:22:17.320Z,22.00
2018-06-27T18:24:45.547Z,21.90
2018-06-27T18:27:13.797Z,21.80
2018-06-27T18:32:10.081Z,21.60
2018-06-27T18:34:38.303Z,21.60
2018-06-27T18:37:06.520Z,21.60
2018-06-27T18:39:34.751Z,21.70
2018-06-27T18:42:02.971Z,21.70
2018-06-27T18:44:31.207Z,21.60
2018-06-27T18:46:59.449Z,21.50
2018-06-27T18:49:27.685Z,21.40
2018-06-27T18:51:56.064Z,21.20
2018-06-27T18:54:24.363Z,21.10
2018-06-27T18:56:52.584Z,21.10
2018-06-27T18:59:20.882Z,21.00
2018-06-27T19:04:17.105Z,20.70
2018-06-27T19:06:46.419Z,20.60
2018-06-27T19:09:14.693Z,20.50
2018-06-27T19:14:10.997Z,20.10
2018-06-27T19:16:39.280Z,20.00
2018-06-27T19:19:07.560Z,19.80
2018-06-27T19:21:35.902Z,19.70
2018-06-27T19:26:32.148Z,19.50
2018-06-27T19:29:00.396Z,19.40
2018-06-27T19:31:28.623Z,19.30
2018-06-27T19:33:56.912Z,19.20
2018-06-27T19:36:25.200Z,19.20
2018-06-27T19:38:53.420Z,19.00
2018-06-27T19:41:22.070Z,18.90
2018-06-27T19:43:50.195Z,18.80
2018-06-27T19:46:18.869Z,18.70
2018-06-27T19:48:47.097Z,18.50
2018-06-27T19:51:15.369Z,18.40
2018-06-27T19:53:43.613Z,18.30
2018-06-27T19:56:11.827Z,18.20
2018-06-27T19:58:40.084Z,18.10
2018-06-27T20:01:08.300Z,18.00
2018-06-27T20:03:36.509Z,18.00
2018-06-27T20:06:04.732Z,17.90
2018-06-27T20:08:32.939Z,17.80
2018-06-27T20:11:01.176Z,17.80
2018-06-27T20:13:29.408Z,17.70
2018-06-27T20:15:57.743Z,17.60
2018-06-27T20:18:25.992Z,17.60
2018-06-27T20:20:54.215Z,17.60
2018-06-27T20:23:23.097Z,17.60
2018-06-27T20:28:19.519Z,17.40
2018-06-27T20:30:47.764Z,17.30
2018-06-27T20:33:16.003Z,17.30
2018-06-27T20:35:44.265Z,17.30
2018-06-27T20:38:13.229Z,17.40
2018-06-27T20:40:41.580Z,17.30
2018-06-27T20:43:10.501Z,17.20
2018-06-27T20:45:38.766Z,17.10
2018-06-27T20:48:07.127Z,16.90
2018-06-27T20:50:35.474Z,16.90
2018-06-27T20:53:03.939Z,16.80
2018-06-27T20:55:32.181Z,16.80
2018-06-27T20:58:00.557Z,16.70
2018-06-27T21:00:28.851Z,16.70
2018-06-27T21:02:57.196Z,16.70
2018-06-27T21:05:25.426Z,16.80
2018-06-27T21:07:53.874Z,16.80
2018-06-27T21:10:22.066Z,16.80
2018-06-27T21:12:50.592Z,16.80
2018-06-27T21:15:18.812Z,16.70
2018-06-27T21:17:47.043Z,16.70
2018-06-27T21:20:15.283Z,16.80
2018-06-27T21:22:43.611Z,16.80
2018-06-27T21:25:11.863Z,16.80
2018-06-27T21:27:40.124Z,16.90
2018-06-27T21:30:08.800Z,17.00
2018-06-27T21:32:37.275Z,17.10
2018-06-27T21:35:06.071Z,17.10
2018-06-27T21:37:34.312Z,17.10
2018-06-27T21:40:02.835Z,17.20
2018-06-27T21:44:59.089Z,17.30
2018-06-27T21:49:55.344Z,17.30
2018-06-27T21:52:23.589Z,17.20
2018-06-27T21:54:51.859Z,17.10
2018-06-27T21:57:20.171Z,17.20
2018-06-27T21:59:48.501Z,17.20
2018-06-27T22:02:16.793Z,17.10
2018-06-27T22:04:45.036Z,17.10
2018-06-27T22:07:13.356Z,17.00
2018-06-27T22:09:41.606Z,16.90
2018-06-27T22:12:09.841Z,16.90
2018-06-27T22:14:38.130Z,16.90
2018-06-27T22:17:06.445Z,16.90
2018-06-27T22:19:34.725Z,16.90
2018-06-27T22:22:03.097Z,16.90
2018-06-27T22:24:31.330Z,17.00
2018-06-27T22:26:59.730Z,17.00
2018-06-27T22:29:28.414Z,17.10
2018-06-27T22:31:56.736Z,17.20
2018-06-27T22:36:53.319Z,17.30
2018-06-27T22:39:22.364Z,17.40
2018-06-27T22:41:50.790Z,17.30
2018-06-27T22:44:19.141Z,17.40
2018-06-27T22:46:47.857Z,17.40
2018-06-27T22:51:44.320Z,17.50
2018-06-27T22:54:12.865Z,17.60
2018-06-27T22:56:41.168Z,17.60
2018-06-27T22:59:09.780Z,17.70
2018-06-27T23:01:38.043Z,17.70
2018-06-27T23:04:07.124Z,17.70
2018-06-27T23:06:35.360Z,17.70
2018-06-27T23:09:04.683Z,17.70
2018-06-27T23:11:32.912Z,17.70
2018-06-27T23:16:29.148Z,17.80
2018-06-27T23:18:57.389Z,17.70
2018-06-27T23:21:25.634Z,17.70
2018-06-27T23:23:53.837Z,17.80
2018-06-27T23:26:22.216Z,17.80
2018-06-27T23:28:50.542Z,17.70
2018-06-27T23:31:18.879Z,17.70
2018-06-27T23:33:47.112Z,17.70
2018-06-27T23:36:15.373Z,17.70
2018-06-27T23:38:43.591Z,17.70
2018-06-27T23:41:11.849Z,17.70
2018-06-27T23:43:40.104Z,17.70
2018-06-27T23:46:08.352Z,17.60
2018-06-27T23:51:04.726Z,17.60
2018-06-27T23:53:32.969Z,17.60
2018-06-27T23:56:01.193Z,17.60
2018-06-27T23:58:29.431Z,17.60
